createdAt,value
2022-11-06T00:07:11.362Z,84.29
2022-11-06T00:17:13.965Z,83.65
2022-11-06T00:27:17.918Z,83.68
2022-11-06T00:37:20.568Z,83.39
2022-11-06T00:47:25.282Z,83.07
2022-11-06T00:57:27.992Z,83.10
2022-11-06T01:07:32.074Z,82.78
2022-11-06T01:17:35.797Z,82.73
2022-11-06T01:27:39.761Z,82.72
2022-11-06T01:37:43.696Z,85.87
2022-11-06T01:47:47.949Z,86.50
2022-11-06T01:57:50.745Z,88.95
2022-11-06T02:07:56.467Z,87.58
2022-11-06T02:18:13.518Z,87.38
2022-11-06T02:28:24.542Z,89.50
2022-11-06T02:38:31.605Z,92.49
2022-11-06T02:48:42.210Z,93.23
2022-11-06T02:58:49.075Z,93.50
2022-11-06T03:08:57.710Z,92.56
2022-11-06T03:19:07.088Z,93.39
2022-11-06T03:29:15.268Z,93.95
2022-11-06T03:39:22.655Z,95.62
2022-11-06T03:49:31.401Z,95.69
2022-11-06T03:59:39.134Z,96.31
2022-11-06T04:10:05.396Z,95.98
2022-11-06T04:20:32.801Z,95.97
2022-11-06T04:30:43.302Z,96.04
2022-11-06T04:40:55.380Z,96.83
2022-11-06T04:51:02.187Z,96.47
2022-11-06T05:01:05.313Z,96.87
2022-11-06T05:11:09.524Z,97.22
2022-11-06T05:21:29.895Z,97.16
2022-11-06T05:31:34.044Z,97.73
2022-11-06T05:41:36.908Z,97.56
2022-11-06T05:51:41.129Z,97.07
2022-11-06T06:01:43.907Z,96.65
2022-11-06T06:11:51.629Z,96.23
2022-11-06T06:21:54.440Z,95.21
2022-11-06T06:31:58.569Z,94.14
2022-11-06T06:42:01.185Z,93.17
2022-11-06T06:52:05.411Z,92.75
2022-11-06T07:02:08.208Z,91.82
2022-11-06T07:12:12.339Z,91.50
2022-11-06T07:22:15.012Z,90.68
2022-11-06T07:32:19.053Z,89.28
2022-11-06T07:42:21.777Z,88.15
2022-11-06T07:52:25.820Z,86.06
2022-11-06T08:02:28.559Z,86.13
2022-11-06T08:12:32.666Z,85.56
2022-11-06T08:22:35.355Z,84.82
2022-11-06T08:32:39.354Z,85.53
2022-11-06T08:42:42.002Z,83.29
2022-11-06T08:52:45.947Z,83.34
2022-11-06T09:02:48.561Z,83.14
2022-11-06T09:12:52.950Z,81.91
2022-11-06T09:22:56.013Z,83.04
2022-11-06T09:33:02.564Z,81.92
2022-11-06T09:43:16.407Z,79.72
2022-11-06T09:53:27.286Z,78.41
2022-11-06T10:03:38.402Z,78.13
2022-11-06T10:13:54.266Z,78.47
2022-11-06T10:23:59.367Z,79.40
2022-11-06T10:34:08.167Z,77.48
2022-11-06T10:44:16.362Z,77.18
2022-11-06T10:54:34.003Z,74.75
2022-11-06T11:04:36.592Z,75.20
2022-11-06T11:14:40.586Z,65.47
2022-11-06T11:25:01.113Z,67.84
2022-11-06T11:35:10.961Z,70.07
2022-11-06T11:45:15.169Z,72.77
2022-11-06T11:55:22.232Z,72.87
2022-11-06T12:05:29.488Z,71.33
2022-11-06T12:15:41.506Z,71.66
2022-11-06T12:25:48.099Z,72.65
2022-11-06T12:35:59.833Z,72.06
2022-11-06T12:46:22.885Z,72.06
2022-11-06T12:56:36.398Z,68.20
2022-11-06T13:07:06.499Z,67.60
2022-11-06T13:17:16.912Z,69.10
2022-11-06T13:27:27.127Z,68.36
2022-11-06T13:37:40.074Z,70.00
2022-11-06T13:47:54.169Z,70.55
2022-11-06T13:58:24.401Z,71.69
2022-11-06T14:08:30.505Z,72.06
2022-11-06T14:18:35.122Z,71.97
2022-11-06T14:28:39.482Z,72.50
2022-11-06T14:38:43.741Z,72.64
2022-11-06T14:48:48.898Z,72.12
2022-11-06T14:58:56.701Z,72.46
2022-11-06T15:09:02.849Z,72.06
2022-11-06T15:19:08.403Z,72.22
2022-11-06T15:29:18.877Z,72.31
2022-11-06T15:39:33.853Z,71.64
2022-11-06T15:49:36.507Z,72.11
2022-11-06T15:59:40.557Z,70.55
2022-11-06T16:09:44.219Z,70.81
2022-11-06T16:19:49.347Z,70.82
2022-11-06T16:29:55.489Z,70.49
2022-11-06T16:40:00.083Z,69.55
2022-11-06T16:50:05.780Z,69.23
2022-11-06T17:00:24.425Z,65.87
2022-11-06T17:10:37.838Z,66.04
2022-11-06T17:20:42.624Z,67.35
2022-11-06T17:30:45.891Z,71.97
2022-11-06T17:40:49.985Z,74.67
2022-11-06T17:51:10.337Z,83.16
2022-11-06T18:01:14.676Z,85.14
2022-11-06T18:11:17.358Z,87.51
2022-11-06T18:21:22.210Z,88.63
2022-11-06T18:31:24.880Z,89.87
2022-11-06T18:41:29.805Z,90.68
2022-11-06T18:51:35.428Z,90.80
2022-11-06T19:01:40.289Z,92.05
2022-11-06T19:11:42.984Z,92.24
2022-11-06T19:21:47.922Z,92.21
2022-11-06T19:31:50.542Z,92.88
2022-11-06T19:41:54.525Z,92.44
2022-11-06T19:51:57.152Z,92.30
2022-11-06T20:02:21.223Z,88.86
2022-11-06T20:12:23.931Z,87.89
2022-11-06T20:22:28.003Z,88.43
2022-11-06T20:32:30.700Z,88.87
2022-11-06T20:42:34.761Z,90.81
2022-11-06T20:52:37.425Z,91.34
2022-11-06T21:02:41.508Z,88.96
2022-11-06T21:12:44.165Z,87.93
2022-11-06T21:22:48.140Z,85.55
2022-11-06T21:32:50.760Z,85.97
2022-11-06T21:42:54.726Z,85.25
2022-11-06T21:53:14.932Z,85.13
2022-11-06T22:03:18.938Z,85.00
2022-11-06T22:13:21.607Z,85.24
2022-11-06T22:23:25.647Z,85.36
2022-11-06T22:33:28.786Z,85.14
2022-11-06T22:43:33.841Z,85.96
2022-11-06T22:53:36.772Z,85.57
2022-11-06T23:03:41.581Z,86.35
2022-11-06T23:13:44.829Z,86.01
2022-11-06T23:23:48.802Z,85.37
2022-11-06T23:33:51.547Z,85.63
2022-11-06T23:43:55.738Z,85.67
2022-11-06T23:53:58.348Z,85.94
